createdAt,value
2019-02-14T00:00:40.131Z,-1.21
2019-02-14T00:03:09.661Z,-1.25
2019-02-14T00:05:39.202Z,-1.22
2019-02-14T00:08:08.658Z,-1.26
2019-02-14T00:10:38.134Z,-1.24
2019-02-14T00:13:07.640Z,-1.21
2019-02-14T00:15:37.188Z,-1.30
2019-02-14T00:18:06.682Z,-1.28
2019-02-14T00:20:36.148Z,-1.28
2019-02-14T00:23:05.715Z,-1.35
2019-02-14T00:25:35.306Z,-1.40
2019-02-14T00:28:04.779Z,-1.39
2019-02-14T00:30:34.356Z,-1.40
2019-02-14T00:33:03.855Z,-1.38
2019-02-14T00:35:33.333Z,-1.38
2019-02-14T00:38:02.813Z,-1.36
2019-02-14T00:40:32.284Z,-1.37
2019-02-14T00:43:01.777Z,-1.35
2019-02-14T00:45:31.249Z,-1.38
2019-02-14T00:48:00.726Z,-1.36
2019-02-14T00:50:30.249Z,-1.47
2019-02-14T00:52:59.735Z,-1.59
2019-02-14T00:55:29.202Z,-1.67
2019-02-14T00:57:58.707Z,-1.70
2019-02-14T01:00:28.198Z,-1.66
2019-02-14T01:02:57.700Z,-1.62
2019-02-14T01:05:33.464Z,-1.61
2019-02-14T01:07:58.400Z,-1.62
2019-02-14T01:10:27.905Z,-1.66
2019-02-14T01:12:57.376Z,-1.67
2019-02-14T01:15:27.555Z,-1.66
2019-02-14T01:17:57.072Z,-1.61
2019-02-14T01:20:26.543Z,-1.55
2019-02-14T01:22:56.016Z,-1.59
2019-02-14T01:25:25.488Z,-1.53
2019-02-14T01:27:55.018Z,-1.49
2019-02-14T01:30:24.491Z,-1.51
2019-02-14T01:32:53.975Z,-1.63
2019-02-14T01:35:23.455Z,-1.68
2019-02-14T01:37:52.980Z,-1.70
2019-02-14T01:40:22.462Z,-1.67
2019-02-14T01:42:51.955Z,-1.67
2019-02-14T01:45:21.847Z,-1.75
2019-02-14T01:47:51.315Z,-1.80
2019-02-14T01:50:20.786Z,-1.80
2019-02-14T01:52:50.270Z,-1.81
2019-02-14T01:55:19.729Z,-1.74
2019-02-14T01:57:49.189Z,-1.77
2019-02-14T02:00:18.662Z,-1.78
2019-02-14T02:02:48.222Z,-1.93
2019-02-14T02:05:17.685Z,-1.97
2019-02-14T02:07:47.135Z,-1.98
2019-02-14T02:10:16.712Z,-2.03
2019-02-14T02:12:46.249Z,-2.05
2019-02-14T02:15:15.727Z,-2.03
2019-02-14T02:17:45.212Z,-2.04
2019-02-14T02:20:14.867Z,-2.02
2019-02-14T02:22:44.322Z,-2.00
2019-02-14T02:25:13.782Z,-2.00
2019-02-14T02:27:43.313Z,-2.00
2019-02-14T02:30:14.341Z,-1.97
2019-02-14T02:32:43.840Z,-2.04
2019-02-14T02:35:13.319Z,-1.96
2019-02-14T02:37:42.796Z,-2.02
2019-02-14T02:40:12.317Z,-1.97
2019-02-14T02:42:41.800Z,-2.00
2019-02-14T02:45:12.646Z,-2.05
2019-02-14T02:47:42.120Z,-2.04
2019-02-14T02:50:13.614Z,-2.07
2019-02-14T02:52:43.096Z,-2.06
2019-02-14T02:55:12.544Z,-2.07
2019-02-14T02:57:42.021Z,-2.08
2019-02-14T03:00:14.267Z,-2.08
2019-02-14T03:02:43.726Z,-2.12
2019-02-14T03:05:14.512Z,-2.11
2019-02-14T03:07:43.991Z,-2.16
2019-02-14T03:10:14.251Z,-2.09
2019-02-14T03:12:43.721Z,-2.04
2019-02-14T03:15:13.661Z,-2.11
2019-02-14T03:17:43.107Z,-2.12
2019-02-14T03:20:12.812Z,-2.09
2019-02-14T03:22:42.290Z,-2.14
2019-02-14T03:25:14.415Z,-2.12
2019-02-14T03:27:43.907Z,-2.16
2019-02-14T03:30:14.260Z,-2.21
2019-02-14T03:32:43.727Z,-2.26
2019-02-14T03:35:13.217Z,-2.20
2019-02-14T03:37:42.725Z,-2.17
2019-02-14T03:40:12.402Z,-2.21
2019-02-14T03:42:41.872Z,-2.22
2019-02-14T03:45:14.063Z,-2.27
2019-02-14T03:47:43.532Z,-2.21
2019-02-14T03:50:13.128Z,-2.21
2019-02-14T03:52:42.612Z,-2.22
2019-02-14T03:55:12.128Z,-2.12
2019-02-14T03:57:41.670Z,-2.10
2019-02-14T04:00:13.696Z,-2.07
2019-02-14T04:02:43.162Z,-1.99
2019-02-14T04:05:12.761Z,-1.97
2019-02-14T04:07:42.211Z,-1.96
2019-02-14T04:10:12.621Z,-2.02
2019-02-14T04:12:42.091Z,-2.04
2019-02-14T04:15:13.667Z,-2.07
2019-02-14T04:17:43.172Z,-2.08
2019-02-14T04:20:13.426Z,-2.07
2019-02-14T04:22:42.897Z,-2.07
2019-02-14T04:25:12.676Z,-2.08
2019-02-14T04:27:42.147Z,-2.01
2019-02-14T04:30:12.115Z,-1.94
2019-02-14T04:32:41.692Z,-1.92
2019-02-14T04:35:11.973Z,-1.86
2019-02-14T04:37:41.470Z,-1.93
2019-02-14T04:40:12.256Z,-1.96
2019-02-14T04:42:41.809Z,-1.98
2019-02-14T04:45:11.667Z,-1.96
2019-02-14T04:47:41.207Z,-1.91
2019-02-14T04:50:10.742Z,-1.92
2019-02-14T04:52:40.245Z,-1.87
2019-02-14T04:55:09.707Z,-1.84
2019-02-14T04:57:39.227Z,-1.75
2019-02-14T05:00:09.945Z,-1.79
2019-02-14T05:02:39.541Z,-1.74
2019-02-14T05:05:09.363Z,-1.81
2019-02-14T05:07:38.842Z,-1.89
2019-02-14T05:10:08.345Z,-1.87
2019-02-14T05:12:37.824Z,-1.83
2019-02-14T05:15:07.409Z,-1.77
2019-02-14T05:17:36.874Z,-1.68
2019-02-14T05:20:07.345Z,-1.62
2019-02-14T05:22:36.849Z,-1.66
2019-02-14T05:25:06.776Z,-1.70
2019-02-14T05:27:36.351Z,-1.76
2019-02-14T05:30:06.425Z,-1.75
2019-02-14T05:32:35.949Z,-1.68
2019-02-14T05:35:05.755Z,-1.66
2019-02-14T05:37:35.197Z,-1.64
2019-02-14T05:40:04.951Z,-1.65
2019-02-14T05:42:34.413Z,-1.55
2019-02-14T05:45:03.998Z,-1.47
2019-02-14T05:47:33.503Z,-1.45
2019-02-14T05:50:03.125Z,-1.41
2019-02-14T05:52:32.603Z,-1.42
2019-02-14T05:55:02.053Z,-1.46
2019-02-14T05:57:31.537Z,-1.39
2019-02-14T06:00:00.981Z,-1.36
2019-02-14T06:02:32.154Z,-1.31
2019-02-14T06:05:01.844Z,-1.26
2019-02-14T06:07:31.332Z,-1.22
2019-02-14T06:10:00.814Z,-1.24
2019-02-14T06:12:30.284Z,-1.18
2019-02-14T06:14:59.816Z,-1.25
2019-02-14T06:17:29.321Z,-1.19
2019-02-14T06:19:58.827Z,-1.01
2019-02-14T06:22:28.346Z,-1.20
2019-02-14T06:24:57.854Z,-1.06
2019-02-14T06:27:27.359Z,-1.08
2019-02-14T06:29:56.865Z,-1.09
2019-02-14T06:32:26.346Z,-1.12
2019-02-14T06:34:55.856Z,-1.04
2019-02-14T06:37:25.318Z,-1.17
2019-02-14T06:39:54.825Z,-1.17
2019-02-14T06:42:24.322Z,-1.16
2019-02-14T06:44:53.836Z,-1.17
2019-02-14T06:47:23.328Z,-1.10
2019-02-14T06:49:52.811Z,-1.02
2019-02-14T06:52:22.316Z,-1.03
2019-02-14T06:54:51.822Z,-0.93
2019-02-14T06:57:21.331Z,-0.84
2019-02-14T06:59:50.823Z,-0.81
2019-02-14T07:02:20.327Z,-0.72
2019-02-14T07:04:49.834Z,-0.73
2019-02-14T07:07:19.378Z,-0.66
2019-02-14T07:09:48.877Z,-0.68
2019-02-14T07:12:18.394Z,-0.69
2019-02-14T07:14:47.896Z,-0.60
2019-02-14T07:17:17.438Z,-0.51
2019-02-14T07:19:46.925Z,-0.45
2019-02-14T07:22:16.502Z,-0.53
2019-02-14T07:24:46.061Z,-0.51
2019-02-14T07:27:15.638Z,-0.47
2019-02-14T07:29:45.185Z,-0.49
2019-02-14T07:32:14.667Z,-0.45
2019-02-14T07:34:44.203Z,-0.48
2019-02-14T07:37:13.707Z,-0.40
2019-02-14T07:39:43.203Z,-0.32
2019-02-14T07:42:12.740Z,-0.25
2019-02-14T07:44:42.237Z,-0.05
2019-02-14T07:47:11.779Z,0.05
2019-02-14T07:49:41.288Z,-0.02
2019-02-14T07:52:10.798Z,-0.07
2019-02-14T07:54:40.249Z,0.06
2019-02-14T07:57:09.731Z,0.19
2019-02-14T07:59:39.245Z,0.42
2019-02-14T08:02:08.748Z,0.58
2019-02-14T08:04:38.238Z,0.61
2019-02-14T08:07:07.791Z,0.74
2019-02-14T08:09:37.263Z,0.84
2019-02-14T08:12:06.749Z,0.82
2019-02-14T08:14:36.270Z,0.85
2019-02-14T08:17:05.842Z,0.76
2019-02-14T08:19:35.331Z,0.84
2019-02-14T08:22:04.870Z,0.83
2019-02-14T08:24:34.646Z,0.98
2019-02-14T08:27:04.157Z,1.06
2019-02-14T08:29:33.683Z,1.18
2019-02-14T08:32:03.150Z,1.26
2019-02-14T08:34:32.692Z,1.30
2019-02-14T08:37:02.196Z,1.36
2019-02-14T08:39:31.698Z,1.60
2019-02-14T08:42:01.207Z,1.77
2019-02-14T08:44:30.705Z,1.95
2019-02-14T08:47:00.181Z,1.93
2019-02-14T08:49:29.678Z,2.00
2019-02-14T08:51:59.292Z,2.01
2019-02-14T08:54:28.761Z,1.96
2019-02-14T08:56:58.281Z,2.05
2019-02-14T08:59:27.790Z,2.12
2019-02-14T09:01:57.646Z,2.30
2019-02-14T09:04:27.193Z,2.54
2019-02-14T09:06:56.664Z,2.62
2019-02-14T09:09:26.150Z,2.59
2019-02-14T09:11:55.649Z,2.51
2019-02-14T09:14:25.234Z,2.48
2019-02-14T09:16:54.671Z,2.50
2019-02-14T09:19:24.155Z,2.54
2019-02-14T09:21:53.627Z,2.47
2019-02-14T09:24:23.127Z,2.53
2019-02-14T09:26:52.630Z,2.48
2019-02-14T09:29:22.114Z,2.60
2019-02-14T09:31:51.629Z,2.65
2019-02-14T09:34:21.152Z,2.72
2019-02-14T09:36:50.657Z,2.81
2019-02-14T09:39:20.138Z,2.74
2019-02-14T09:41:49.610Z,2.76
2019-02-14T09:44:19.126Z,2.75
2019-02-14T09:46:48.623Z,2.79
2019-02-14T09:49:18.150Z,2.89
2019-02-14T09:51:47.598Z,2.96
2019-02-14T09:54:17.066Z,2.99
2019-02-14T09:56:46.552Z,3.14
2019-02-14T09:59:16.074Z,3.06
2019-02-14T10:01:45.555Z,3.12
2019-02-14T10:04:15.032Z,3.21
2019-02-14T10:06:44.519Z,3.24
2019-02-14T10:09:14.090Z,3.29
2019-02-14T10:11:43.587Z,3.47
2019-02-14T10:14:13.077Z,3.52
2019-02-14T10:16:42.603Z,3.55
2019-02-14T10:19:12.099Z,3.58
2019-02-14T10:21:41.550Z,3.63
2019-02-14T10:24:11.036Z,3.69
2019-02-14T10:26:40.535Z,3.79
2019-02-14T10:29:10.032Z,3.90
2019-02-14T10:31:39.505Z,3.81
2019-02-14T10:34:08.998Z,3.78
2019-02-14T10:36:38.505Z,3.73
2019-02-14T10:39:08.066Z,3.77
2019-02-14T10:41:37.596Z,3.78
2019-02-14T10:44:07.065Z,3.89
2019-02-14T10:46:36.543Z,3.96
2019-02-14T10:49:06.048Z,4.07
2019-02-14T10:51:35.505Z,4.16
2019-02-14T10:54:05.008Z,4.10
2019-02-14T10:56:34.523Z,4.21
2019-02-14T10:59:04.146Z,4.30
2019-02-14T11:01:33.714Z,4.43
2019-02-14T11:04:03.212Z,4.47
2019-02-14T11:06:32.696Z,4.50
2019-02-14T11:09:02.171Z,4.54
2019-02-14T11:11:31.716Z,4.66
2019-02-14T11:14:01.190Z,4.66
2019-02-14T11:16:30.679Z,4.60
2019-02-14T11:19:00.176Z,4.56
2019-02-14T11:21:29.642Z,4.57
2019-02-14T11:23:59.187Z,4.69
2019-02-14T11:26:28.732Z,4.73
2019-02-14T11:28:58.190Z,4.92
2019-02-14T11:31:27.666Z,4.93
2019-02-14T11:33:57.193Z,4.98
2019-02-14T11:36:26.769Z,5.06
2019-02-14T11:38:56.258Z,5.23
2019-02-14T11:41:25.744Z,5.23
2019-02-14T11:43:55.255Z,5.12
2019-02-14T11:46:24.781Z,5.12
2019-02-14T11:48:54.313Z,5.22
2019-02-14T11:51:23.775Z,5.14
2019-02-14T11:53:53.255Z,5.09
2019-02-14T11:56:23.288Z,5.02
2019-02-14T11:58:52.807Z,4.94
2019-02-14T12:01:22.326Z,4.79
2019-02-14T12:03:51.832Z,4.76
2019-02-14T12:06:21.327Z,4.65
2019-02-14T12:08:59.758Z,4.66
2019-02-14T12:11:22.231Z,4.59
2019-02-14T12:13:51.735Z,4.32
2019-02-14T12:16:21.239Z,4.35
2019-02-14T12:18:50.771Z,4.44
2019-02-14T12:21:20.274Z,4.43
2019-02-14T12:23:49.779Z,4.51
2019-02-14T12:26:19.336Z,4.57
2019-02-14T12:28:48.860Z,4.67
2019-02-14T12:31:18.749Z,4.76
2019-02-14T12:33:48.386Z,4.85
2019-02-14T12:36:17.924Z,4.83
2019-02-14T12:38:47.431Z,4.91
2019-02-14T12:41:17.012Z,4.97
2019-02-14T12:43:46.534Z,4.80
2019-02-14T12:46:16.039Z,4.69
2019-02-14T12:48:45.670Z,4.77
2019-02-14T12:51:15.181Z,4.53
2019-02-14T12:53:44.722Z,4.36
2019-02-14T12:56:14.708Z,4.37
2019-02-14T12:58:44.185Z,4.39
2019-02-14T13:01:13.705Z,4.27
2019-02-14T13:03:43.816Z,4.14
2019-02-14T13:06:15.198Z,4.08
2019-02-14T13:08:44.753Z,4.16
2019-02-14T13:11:14.248Z,4.13
2019-02-14T13:13:43.820Z,4.19
2019-02-14T13:16:13.700Z,4.20
2019-02-14T13:18:43.217Z,4.17
2019-02-14T13:21:12.785Z,4.20
2019-02-14T13:23:42.342Z,4.31
2019-02-14T13:26:12.060Z,4.22
2019-02-14T13:28:46.298Z,4.20
2019-02-14T13:31:15.999Z,4.25
2019-02-14T13:33:45.747Z,4.18
2019-02-14T13:36:15.245Z,4.29
2019-02-14T13:38:44.877Z,4.35
2019-02-14T13:41:14.480Z,4.25
2019-02-14T13:43:44.119Z,4.00
2019-02-14T13:46:13.729Z,3.99
2019-02-14T13:48:43.258Z,3.96
2019-02-14T13:51:12.868Z,4.07
2019-02-14T13:53:42.434Z,4.05
2019-02-14T13:56:12.010Z,3.93
2019-02-14T13:58:41.609Z,3.91
2019-02-14T14:01:11.160Z,3.71
2019-02-14T14:03:43.495Z,3.27
2019-02-14T14:06:13.002Z,3.26
2019-02-14T14:08:42.554Z,3.37
2019-02-14T14:11:12.057Z,3.47
2019-02-14T14:13:41.673Z,3.49
2019-02-14T14:16:11.257Z,3.48
2019-02-14T14:18:40.806Z,3.44
2019-02-14T14:21:10.368Z,3.51
2019-02-14T14:23:40.105Z,3.54
2019-02-14T14:26:09.569Z,3.52
2019-02-14T14:28:39.184Z,3.55
2019-02-14T14:31:08.839Z,3.55
2019-02-14T14:33:38.407Z,3.52
2019-02-14T14:36:08.060Z,3.47
2019-02-14T14:38:37.598Z,3.42
2019-02-14T14:41:07.148Z,3.41
2019-02-14T14:43:46.930Z,3.43
2019-02-14T14:46:28.903Z,3.27
2019-02-14T14:48:58.631Z,3.18
2019-02-14T14:51:28.218Z,3.17
2019-02-14T14:53:57.736Z,3.18
2019-02-14T14:56:27.382Z,3.25
2019-02-14T14:58:56.967Z,3.25
2019-02-14T15:01:26.540Z,3.26
2019-02-14T15:03:56.160Z,3.28
2019-02-14T15:06:25.813Z,3.33
2019-02-14T15:08:55.408Z,3.35
2019-02-14T15:11:24.979Z,3.30
2019-02-14T15:13:54.514Z,3.30
2019-02-14T15:16:24.181Z,3.33
2019-02-14T15:18:53.678Z,3.37
2019-02-14T15:21:23.327Z,3.33
2019-02-14T15:23:52.906Z,3.27
2019-02-14T15:26:22.555Z,3.13
2019-02-14T15:28:52.114Z,2.98
2019-02-14T15:31:23.506Z,2.87
2019-02-14T15:33:53.136Z,2.86
2019-02-14T15:36:24.336Z,2.88
2019-02-14T15:38:54.022Z,2.97
2019-02-14T15:41:23.587Z,2.95
2019-02-14T15:43:53.298Z,2.96
2019-02-14T15:46:23.018Z,2.87
2019-02-14T15:48:55.623Z,2.69
2019-02-14T15:51:25.239Z,2.69
2019-02-14T15:53:54.842Z,2.78
2019-02-14T15:56:24.377Z,2.81
2019-02-14T15:58:56.731Z,2.84
2019-02-14T16:01:25.215Z,2.89
2019-02-14T16:03:54.756Z,2.96
2019-02-14T16:06:26.056Z,3.00
2019-02-14T16:08:55.574Z,2.93
2019-02-14T16:11:25.319Z,2.97
2019-02-14T16:13:56.986Z,2.98
2019-02-14T16:16:26.087Z,2.97
2019-02-14T16:18:55.877Z,3.06
2019-02-14T16:21:27.307Z,3.02
2019-02-14T16:23:56.793Z,2.83
2019-02-14T16:26:26.322Z,2.72
2019-02-14T16:28:55.894Z,2.74
2019-02-14T16:31:25.450Z,2.75
2019-02-14T16:33:54.899Z,2.84
2019-02-14T16:36:24.440Z,2.81
2019-02-14T16:38:53.958Z,2.77
2019-02-14T16:41:23.476Z,2.70
2019-02-14T16:43:53.100Z,2.73
2019-02-14T16:46:22.697Z,2.68
2019-02-14T16:48:52.306Z,2.63
2019-02-14T16:51:21.873Z,2.67
2019-02-14T16:53:51.658Z,2.63
2019-02-14T16:56:21.295Z,2.55
2019-02-14T16:58:50.875Z,2.62
2019-02-14T17:01:20.613Z,2.67
2019-02-14T17:03:50.189Z,2.68
2019-02-14T17:06:19.728Z,2.61
2019-02-14T17:08:49.374Z,2.55
2019-02-14T17:11:18.990Z,2.51
2019-02-14T17:13:48.571Z,2.48
2019-02-14T17:16:18.722Z,2.47
2019-02-14T17:18:48.247Z,2.46
2019-02-14T17:21:17.823Z,2.42
2019-02-14T17:23:47.387Z,2.39
2019-02-14T17:26:17.078Z,2.32
2019-02-14T17:28:46.612Z,2.36
2019-02-14T17:31:16.333Z,2.35
2019-02-14T17:33:45.906Z,2.37
2019-02-14T17:36:15.539Z,2.44
2019-02-14T17:38:45.091Z,2.42
2019-02-14T17:41:14.688Z,2.42
2019-02-14T17:43:44.311Z,2.36
2019-02-14T17:46:14.048Z,2.37
2019-02-14T17:48:43.799Z,2.40
2019-02-14T17:51:13.365Z,2.37
2019-02-14T17:53:42.912Z,2.37
2019-02-14T17:56:12.564Z,2.32
2019-02-14T17:58:42.123Z,2.30
2019-02-14T18:01:11.680Z,2.33
2019-02-14T18:03:41.339Z,2.32
2019-02-14T18:06:10.959Z,2.35
2019-02-14T18:08:40.493Z,2.14
2019-02-14T18:11:10.457Z,2.17
2019-02-14T18:13:39.997Z,2.16
2019-02-14T18:16:09.505Z,2.11
2019-02-14T18:18:39.107Z,2.10
2019-02-14T18:21:08.651Z,2.12
2019-02-14T18:23:38.514Z,2.23
2019-02-14T18:26:08.161Z,2.32
2019-02-14T18:28:37.757Z,2.29
2019-02-14T18:31:08.111Z,2.39
2019-02-14T18:33:40.442Z,2.43
2019-02-14T18:36:09.946Z,2.46
2019-02-14T18:38:39.753Z,2.44
2019-02-14T18:41:09.322Z,2.43
2019-02-14T18:43:38.994Z,2.40
2019-02-14T18:46:08.614Z,2.43
2019-02-14T18:48:38.169Z,2.42
2019-02-14T18:51:07.807Z,2.34
2019-02-14T18:53:37.357Z,2.32
2019-02-14T18:56:06.885Z,2.30
2019-02-14T18:58:36.513Z,2.36
2019-02-14T19:01:06.199Z,2.31
2019-02-14T19:03:35.739Z,2.35
2019-02-14T19:06:05.346Z,2.36
2019-02-14T19:08:35.320Z,2.37
2019-02-14T19:11:14.728Z,2.38
2019-02-14T19:13:36.084Z,2.41
2019-02-14T19:16:05.687Z,2.41
2019-02-14T19:18:36.236Z,2.41
2019-02-14T19:21:05.725Z,2.41
2019-02-14T19:23:35.572Z,2.45
2019-02-14T19:26:05.178Z,2.39
2019-02-14T19:28:35.112Z,2.43
2019-02-14T19:31:04.813Z,2.51
2019-02-14T19:33:34.317Z,2.56
2019-02-14T19:36:03.933Z,2.56
2019-02-14T19:38:33.509Z,2.55
2019-02-14T19:41:03.507Z,2.55
2019-02-14T19:43:33.083Z,2.56
2019-02-14T19:46:06.933Z,2.57
2019-02-14T19:48:36.494Z,2.52
2019-02-14T19:51:06.317Z,2.55
2019-02-14T19:53:35.816Z,2.57
2019-02-14T19:56:05.374Z,2.47
2019-02-14T19:58:34.964Z,2.45
2019-02-14T20:01:04.699Z,2.45
2019-02-14T20:03:34.322Z,2.34
2019-02-14T20:06:03.856Z,2.35
2019-02-14T20:08:33.680Z,2.37
2019-02-14T20:11:03.390Z,2.27
2019-02-14T20:13:32.958Z,2.23
2019-02-14T20:16:04.888Z,2.24
2019-02-14T20:18:34.691Z,2.28
2019-02-14T20:21:04.205Z,2.36
2019-02-14T20:23:33.755Z,2.41
2019-02-14T20:26:03.324Z,2.48
2019-02-14T20:28:32.904Z,2.51
2019-02-14T20:31:02.479Z,2.51
2019-02-14T20:33:32.059Z,2.41
2019-02-14T20:36:01.695Z,2.39
2019-02-14T20:38:31.205Z,2.42
2019-02-14T20:41:00.846Z,2.27
2019-02-14T20:43:30.428Z,2.20
2019-02-14T20:46:00.380Z,2.20
2019-02-14T20:48:29.980Z,2.25
2019-02-14T20:50:59.514Z,2.14
2019-02-14T20:53:30.138Z,2.21
2019-02-14T20:56:00.108Z,2.30
2019-02-14T20:58:29.758Z,2.34
2019-02-14T21:00:59.272Z,2.29
2019-02-14T21:03:28.857Z,2.32
2019-02-14T21:05:58.382Z,2.25
2019-02-14T21:08:28.040Z,2.27
2019-02-14T21:10:57.649Z,2.28
2019-02-14T21:13:27.190Z,2.27
2019-02-14T21:15:56.812Z,2.30
2019-02-14T21:18:26.295Z,2.34
2019-02-14T21:20:55.836Z,2.32
2019-02-14T21:23:25.370Z,2.40
2019-02-14T21:25:55.196Z,2.52
2019-02-14T21:28:24.703Z,2.57
2019-02-14T21:30:54.231Z,2.62
2019-02-14T21:33:23.734Z,2.66
2019-02-14T21:35:53.260Z,2.66
2019-02-14T21:38:22.763Z,2.68
2019-02-14T21:40:52.334Z,2.66
2019-02-14T21:43:21.851Z,2.70
2019-02-14T21:45:51.432Z,2.61
2019-02-14T21:48:20.942Z,2.61
2019-02-14T21:50:50.622Z,2.73
2019-02-14T21:53:20.204Z,2.76
2019-02-14T21:55:49.998Z,2.75
2019-02-14T21:58:19.849Z,2.72
2019-02-14T22:00:49.880Z,2.75
2019-02-14T22:03:19.535Z,2.77
2019-02-14T22:05:49.196Z,2.74
2019-02-14T22:08:18.731Z,2.67
2019-02-14T22:10:48.245Z,2.70
2019-02-14T22:13:17.808Z,2.58
2019-02-14T22:15:47.340Z,2.62
2019-02-14T22:18:16.910Z,2.54
2019-02-14T22:20:46.866Z,2.54
2019-02-14T22:23:16.680Z,2.50
2019-02-14T22:25:46.219Z,2.31
2019-02-14T22:28:15.769Z,2.31
2019-02-14T22:30:45.324Z,2.27
2019-02-14T22:33:14.877Z,2.24
2019-02-14T22:35:45.489Z,2.29
2019-02-14T22:38:14.993Z,2.37
2019-02-14T22:40:44.507Z,2.32
2019-02-14T22:43:14.061Z,2.36
2019-02-14T22:45:43.559Z,2.39
2019-02-14T22:48:13.094Z,2.43
2019-02-14T22:50:42.726Z,2.39
2019-02-14T22:53:12.291Z,2.35
2019-02-14T22:55:41.846Z,2.41
2019-02-14T22:58:11.374Z,2.39
2019-02-14T23:00:48.114Z,2.38
2019-02-14T23:03:17.645Z,2.41
2019-02-14T23:05:47.174Z,2.50
2019-02-14T23:08:16.744Z,2.62
2019-02-14T23:10:46.291Z,2.67
2019-02-14T23:13:15.846Z,2.63
2019-02-14T23:15:45.494Z,2.71
2019-02-14T23:18:14.997Z,2.82
2019-02-14T23:20:44.642Z,2.82
2019-02-14T23:23:14.190Z,2.85
2019-02-14T23:25:43.715Z,2.85
2019-02-14T23:28:13.203Z,2.84
2019-02-14T23:30:42.751Z,2.86
2019-02-14T23:33:12.226Z,2.93
2019-02-14T23:35:41.755Z,2.94
2019-02-14T23:38:11.294Z,3.00
2019-02-14T23:40:40.913Z,3.04
2019-02-14T23:43:10.503Z,2.97
2019-02-14T23:45:40.087Z,3.01
2019-02-14T23:48:09.717Z,2.93
2019-02-14T23:50:39.389Z,3.01
2019-02-14T23:53:09.043Z,3.02
2019-02-14T23:55:38.499Z,2.95
2019-02-14T23:58:08.048Z,2.99
